sensor_id;sensor_type;location;lat;lon;timestamp;P1;durP1;ratioP1;P2;durP2;ratioP2
19575;SDS011;41589;51.196;7.074;2023-03-11T00:02:22;2.70;;;2.50;;
19575;SDS011;41589;51.196;7.074;2023-03-11T00:07:22;2.70;;;1.83;;
19575;SDS011;41589;51.196;7.074;2023-03-11T00:12:23;2.47;;;2.20;;
19575;SDS011;41589;51.196;7.074;2023-03-11T00:17:24;2.00;;;1.90;;
19575;SDS011;41589;51.196;7.074;2023-03-11T00:22:25;1.87;;;1.77;;
19575;SDS011;41589;51.196;7.074;2023-03-11T00:27:26;1.90;;;1.80;;
19575;SDS011;41589;51.196;7.074;2023-03-11T00:32:27;2.03;;;1.93;;
19575;SDS011;41589;51.196;7.074;2023-03-11T00:37:29;1.80;;;1.70;;
19575;SDS011;41589;51.196;7.074;2023-03-11T00:42:32;1.97;;;1.83;;
19575;SDS011;41589;51.196;7.074;2023-03-11T00:47:33;2.10;;;2.00;;
19575;SDS011;41589;51.196;7.074;2023-03-11T00:52:36;2.10;;;2.00;;
19575;SDS011;41589;51.196;7.074;2023-03-11T00:57:37;2.00;;;1.73;;
19575;SDS011;41589;51.196;7.074;2023-03-11T01:02:39;1.80;;;1.70;;
19575;SDS011;41589;51.196;7.074;2023-03-11T01:07:45;1.93;;;1.83;;
19575;SDS011;41589;51.196;7.074;2023-03-11T01:12:47;2.30;;;2.10;;
19575;SDS011;41589;51.196;7.074;2023-03-11T01:17:48;1.47;;;1.37;;
19575;SDS011;41589;51.196;7.074;2023-03-11T01:22:49;1.70;;;1.60;;
19575;SDS011;41589;51.196;7.074;2023-03-11T01:27:49;2.60;;;1.90;;
19575;SDS011;41589;51.196;7.074;2023-03-11T01:32:51;1.70;;;1.60;;
19575;SDS011;41589;51.196;7.074;2023-03-11T01:37:53;2.00;;;1.80;;
19575;SDS011;41589;51.196;7.074;2023-03-11T01:42:54;2.03;;;1.50;;
19575;SDS011;41589;51.196;7.074;2023-03-11T01:47:55;1.90;;;1.80;;
19575;SDS011;41589;51.196;7.074;2023-03-11T01:52:56;1.83;;;1.67;;
19575;SDS011;41589;51.196;7.074;2023-03-11T01:57:58;1.87;;;1.77;;
19575;SDS011;41589;51.196;7.074;2023-03-11T02:03:05;2.07;;;1.87;;
19575;SDS011;41589;51.196;7.074;2023-03-11T02:08:10;1.77;;;1.67;;
19575;SDS011;41589;51.196;7.074;2023-03-11T02:13:11;2.03;;;1.73;;
19575;SDS011;41589;51.196;7.074;2023-03-11T02:18:16;2.60;;;1.93;;
19575;SDS011;41589;51.196;7.074;2023-03-11T02:23:26;2.80;;;1.60;;
19575;SDS011;41589;51.196;7.074;2023-03-11T02:28:33;2.10;;;1.67;;
19575;SDS011;41589;51.196;7.074;2023-03-11T02:33:40;1.87;;;1.67;;
19575;SDS011;41589;51.196;7.074;2023-03-11T02:38:43;1.70;;;1.60;;
19575;SDS011;41589;51.196;7.074;2023-03-11T02:43:44;1.57;;;1.47;;
19575;SDS011;41589;51.196;7.074;2023-03-11T02:48:48;1.50;;;1.40;;
19575;SDS011;41589;51.196;7.074;2023-03-11T02:53:55;1.60;;;1.50;;
19575;SDS011;41589;51.196;7.074;2023-03-11T02:59:02;1.33;;;1.30;;
19575;SDS011;41589;51.196;7.074;2023-03-11T03:04:03;2.00;;;1.60;;
19575;SDS011;41589;51.196;7.074;2023-03-11T03:09:08;1.67;;;1.30;;
19575;SDS011;41589;51.196;7.074;2023-03-11T03:14:09;1.63;;;1.53;;
19575;SDS011;41589;51.196;7.074;2023-03-11T03:19:09;1.77;;;1.67;;
19575;SDS011;41589;51.196;7.074;2023-03-11T03:24:10;1.20;;;1.20;;
19575;SDS011;41589;51.196;7.074;2023-03-11T03:29:11;1.80;;;1.70;;
19575;SDS011;41589;51.196;7.074;2023-03-11T03:34:12;2.07;;;1.40;;
19575;SDS011;41589;51.196;7.074;2023-03-11T03:39:13;1.87;;;1.40;;
19575;SDS011;41589;51.196;7.074;2023-03-11T03:44:14;2.07;;;1.50;;
19575;SDS011;41589;51.196;7.074;2023-03-11T03:49:15;1.43;;;1.33;;
19575;SDS011;41589;51.196;7.074;2023-03-11T03:54:18;1.90;;;1.67;;
19575;SDS011;41589;51.196;7.074;2023-03-11T03:59:19;1.67;;;1.57;;
19575;SDS011;41589;51.196;7.074;2023-03-11T04:04:25;1.30;;;1.30;;
19575;SDS011;41589;51.196;7.074;2023-03-11T04:09:26;3.37;;;1.50;;
19575;SDS011;41589;51.196;7.074;2023-03-11T04:14:27;3.23;;;1.50;;
19575;SDS011;41589;51.196;7.074;2023-03-11T04:19:31;2.33;;;1.30;;
19575;SDS011;41589;51.196;7.074;2023-03-11T04:24:32;1.47;;;1.37;;
19575;SDS011;41589;51.196;7.074;2023-03-11T04:29:33;1.23;;;1.13;;
19575;SDS011;41589;51.196;7.074;2023-03-11T04:34:33;1.40;;;1.40;;
19575;SDS011;41589;51.196;7.074;2023-03-11T04:39:37;1.33;;;1.23;;
19575;SDS011;41589;51.196;7.074;2023-03-11T04:44:39;1.60;;;1.50;;
19575;SDS011;41589;51.196;7.074;2023-03-11T04:49:40;1.50;;;1.40;;
19575;SDS011;41589;51.196;7.074;2023-03-11T04:54:40;1.63;;;1.53;;
19575;SDS011;41589;51.196;7.074;2023-03-11T04:59:49;1.80;;;1.40;;
19575;SDS011;41589;51.196;7.074;2023-03-11T05:04:51;1.50;;;1.40;;
19575;SDS011;41589;51.196;7.074;2023-03-11T05:09:51;1.43;;;1.33;;
19575;SDS011;41589;51.196;7.074;2023-03-11T05:14:52;1.30;;;1.30;;
19575;SDS011;41589;51.196;7.074;2023-03-11T05:19:54;1.40;;;1.37;;
19575;SDS011;41589;51.196;7.074;2023-03-11T05:25:04;1.37;;;1.20;;
19575;SDS011;41589;51.196;7.074;2023-03-11T05:30:06;1.20;;;1.20;;
19575;SDS011;41589;51.196;7.074;2023-03-11T05:35:11;1.10;;;1.10;;
19575;SDS011;41589;51.196;7.074;2023-03-11T05:40:12;5.90;;;1.80;;
19575;SDS011;41589;51.196;7.074;2023-03-11T05:45:13;1.63;;;1.47;;
19575;SDS011;41589;51.196;7.074;2023-03-11T05:50:16;1.33;;;1.23;;
19575;SDS011;41589;51.196;7.074;2023-03-11T05:55:19;1.23;;;1.20;;
19575;SDS011;41589;51.196;7.074;2023-03-11T06:00:20;1.50;;;1.20;;
19575;SDS011;41589;51.196;7.074;2023-03-11T06:05:25;1.67;;;1.30;;
19575;SDS011;41589;51.196;7.074;2023-03-11T06:10:26;1.60;;;1.50;;
19575;SDS011;41589;51.196;7.074;2023-03-11T06:15:27;1.43;;;1.33;;
19575;SDS011;41589;51.196;7.074;2023-03-11T06:20:28;1.37;;;1.33;;
19575;SDS011;41589;51.196;7.074;2023-03-11T06:25:29;1.97;;;1.80;;
19575;SDS011;41589;51.196;7.074;2023-03-11T06:30:30;1.50;;;1.40;;
19575;SDS011;41589;51.196;7.074;2023-03-11T06:35:44;1.60;;;1.50;;
19575;SDS011;41589;51.196;7.074;2023-03-11T06:40:44;1.63;;;1.53;;
19575;SDS011;41589;51.196;7.074;2023-03-11T06:45:45;1.77;;;1.67;;
19575;SDS011;41589;51.196;7.074;2023-03-11T06:50:55;1.77;;;1.40;;
19575;SDS011;41589;51.196;7.074;2023-03-11T06:55:58;2.30;;;1.87;;
19575;SDS011;41589;51.196;7.074;2023-03-11T07:01:13;1.37;;;1.37;;
19575;SDS011;41589;51.196;7.074;2023-03-11T07:06:20;2.20;;;1.23;;
19575;SDS011;41589;51.196;7.074;2023-03-11T07:11:25;1.23;;;1.17;;
19575;SDS011;41589;51.196;7.074;2023-03-11T07:16:32;1.17;;;1.17;;
19575;SDS011;41589;51.196;7.074;2023-03-11T07:21:40;1.53;;;1.27;;
19575;SDS011;41589;51.196;7.074;2023-03-11T07:26:41;1.43;;;1.20;;
19575;SDS011;41589;51.196;7.074;2023-03-11T07:31:42;1.17;;;1.17;;
19575;SDS011;41589;51.196;7.074;2023-03-11T07:36:42;1.43;;;1.43;;
19575;SDS011;41589;51.196;7.074;2023-03-11T07:41:43;1.50;;;1.40;;
19575;SDS011;41589;51.196;7.074;2023-03-11T07:46:44;1.60;;;1.50;;
19575;SDS011;41589;51.196;7.074;2023-03-11T07:51:44;1.40;;;1.40;;
19575;SDS011;41589;51.196;7.074;2023-03-11T07:56:45;1.73;;;1.40;;
19575;SDS011;41589;51.196;7.074;2023-03-11T08:01:45;1.53;;;1.43;;
19575;SDS011;41589;51.196;7.074;2023-03-11T08:06:46;2.90;;;1.67;;
19575;SDS011;41589;51.196;7.074;2023-03-11T08:11:47;1.20;;;1.20;;
19575;SDS011;41589;51.196;7.074;2023-03-11T08:16:47;3.10;;;1.50;;
19575;SDS011;41589;51.196;7.074;2023-03-11T08:21:48;1.53;;;1.43;;
19575;SDS011;41589;51.196;7.074;2023-03-11T08:26:48;1.40;;;1.30;;
19575;SDS011;41589;51.196;7.074;2023-03-11T08:31:48;1.40;;;1.27;;
19575;SDS011;41589;51.196;7.074;2023-03-11T08:36:49;1.80;;;1.70;;
19575;SDS011;41589;51.196;7.074;2023-03-11T08:41:49;1.73;;;1.50;;
19575;SDS011;41589;51.196;7.074;2023-03-11T08:46:50;1.70;;;1.60;;
19575;SDS011;41589;51.196;7.074;2023-03-11T08:51:50;1.57;;;1.47;;
19575;SDS011;41589;51.196;7.074;2023-03-11T08:56:50;1.40;;;1.40;;
19575;SDS011;41589;51.196;7.074;2023-03-11T09:01:51;1.53;;;1.43;;
19575;SDS011;41589;51.196;7.074;2023-03-11T09:06:51;1.50;;;1.40;;
19575;SDS011;41589;51.196;7.074;2023-03-11T09:11:51;1.80;;;1.70;;
19575;SDS011;41589;51.196;7.074;2023-03-11T09:16:52;1.40;;;1.30;;
19575;SDS011;41589;51.196;7.074;2023-03-11T09:21:52;1.40;;;1.30;;
19575;SDS011;41589;51.196;7.074;2023-03-11T09:26:52;1.53;;;1.43;;
19575;SDS011;41589;51.196;7.074;2023-03-11T09:31:53;1.13;;;1.13;;
19575;SDS011;41589;51.196;7.074;2023-03-11T09:36:53;1.23;;;1.20;;
19575;SDS011;41589;51.196;7.074;2023-03-11T09:41:55;1.40;;;1.30;;
19575;SDS011;41589;51.196;7.074;2023-03-11T09:52:13;1.07;;;1.00;;
19575;SDS011;41589;51.196;7.074;2023-03-11T09:57:20;1.80;;;1.20;;
19575;SDS011;41589;51.196;7.074;2023-03-11T10:02:23;1.10;;;1.10;;
19575;SDS011;41589;51.196;7.074;2023-03-11T10:07:27;1.33;;;1.23;;
19575;SDS011;41589;51.196;7.074;2023-03-11T10:12:46;1.00;;;1.00;;
19575;SDS011;41589;51.196;7.074;2023-03-11T10:29:24;0.97;;;0.90;;
19575;SDS011;41589;51.196;7.074;2023-03-11T10:34:40;1.10;;;1.10;;
19575;SDS011;41589;51.196;7.074;2023-03-11T10:39:47;1.00;;;1.00;;
19575;SDS011;41589;51.196;7.074;2023-03-11T10:44:47;1.10;;;1.10;;
19575;SDS011;41589;51.196;7.074;2023-03-11T10:49:48;1.50;;;1.10;;
19575;SDS011;41589;51.196;7.074;2023-03-11T10:54:58;0.83;;;0.83;;
19575;SDS011;41589;51.196;7.074;2023-03-11T11:00:05;0.90;;;0.90;;
19575;SDS011;41589;51.196;7.074;2023-03-11T11:10:18;0.90;;;0.90;;
19575;SDS011;41589;51.196;7.074;2023-03-11T11:20:52;0.90;;;0.90;;
19575;SDS011;41589;51.196;7.074;2023-03-11T11:26:00;0.87;;;0.87;;
19575;SDS011;41589;51.196;7.074;2023-03-11T11:31:04;1.00;;;1.00;;
19575;SDS011;41589;51.196;7.074;2023-03-11T11:36:17;2.13;;;1.03;;
19575;SDS011;41589;51.196;7.074;2023-03-11T11:41:22;1.13;;;1.00;;
19575;SDS011;41589;51.196;7.074;2023-03-11T11:52:15;1.00;;;1.00;;
19575;SDS011;41589;51.196;7.074;2023-03-11T11:57:19;1.13;;;1.13;;
19575;SDS011;41589;51.196;7.074;2023-03-11T12:07:31;1.63;;;1.10;;
19575;SDS011;41589;51.196;7.074;2023-03-11T12:12:42;1.20;;;1.13;;
19575;SDS011;41589;51.196;7.074;2023-03-11T12:17:50;1.23;;;1.17;;
19575;SDS011;41589;51.196;7.074;2023-03-11T12:23:30;1.10;;;1.10;;
19575;SDS011;41589;51.196;7.074;2023-03-11T12:33:40;1.03;;;1.03;;
19575;SDS011;41589;51.196;7.074;2023-03-11T12:38:44;1.17;;;1.10;;
19575;SDS011;41589;51.196;7.074;2023-03-11T12:48:47;1.00;;;1.00;;
19575;SDS011;41589;51.196;7.074;2023-03-11T12:54:21;1.30;;;1.20;;
19575;SDS011;41589;51.196;7.074;2023-03-11T13:10:41;1.20;;;1.10;;
19575;SDS011;41589;51.196;7.074;2023-03-11T13:15:43;1.20;;;1.17;;
19575;SDS011;41589;51.196;7.074;2023-03-11T13:20:45;1.10;;;1.10;;
19575;SDS011;41589;51.196;7.074;2023-03-11T13:36:16;1.70;;;0.90;;
19575;SDS011;41589;51.196;7.074;2023-03-11T13:41:42;1.10;;;0.97;;
19575;SDS011;41589;51.196;7.074;2023-03-11T13:46:47;0.90;;;0.90;;
19575;SDS011;41589;51.196;7.074;2023-03-11T13:51:52;1.67;;;1.00;;
19575;SDS011;41589;51.196;7.074;2023-03-11T13:56:57;1.07;;;1.07;;
19575;SDS011;41589;51.196;7.074;2023-03-11T14:02:00;1.07;;;1.07;;
19575;SDS011;41589;51.196;7.074;2023-03-11T14:07:26;1.20;;;1.20;;
19575;SDS011;41589;51.196;7.074;2023-03-11T14:12:30;0.97;;;0.97;;
19575;SDS011;41589;51.196;7.074;2023-03-11T14:17:30;1.20;;;1.20;;
19575;SDS011;41589;51.196;7.074;2023-03-11T14:22:31;1.13;;;1.00;;
19575;SDS011;41589;51.196;7.074;2023-03-11T14:27:32;0.90;;;0.90;;
19575;SDS011;41589;51.196;7.074;2023-03-11T14:32:33;1.17;;;1.17;;
19575;SDS011;41589;51.196;7.074;2023-03-11T14:37:35;2.83;;;1.00;;
19575;SDS011;41589;51.196;7.074;2023-03-11T14:42:37;3.47;;;1.30;;
19575;SDS011;41589;51.196;7.074;2023-03-11T14:52:54;1.37;;;1.03;;
19575;SDS011;41589;51.196;7.074;2023-03-11T14:58:22;1.00;;;1.00;;
19575;SDS011;41589;51.196;7.074;2023-03-11T15:03:29;0.90;;;0.90;;
19575;SDS011;41589;51.196;7.074;2023-03-11T15:08:36;1.03;;;0.93;;
19575;SDS011;41589;51.196;7.074;2023-03-11T15:13:49;0.80;;;0.80;;
19575;SDS011;41589;51.196;7.074;2023-03-11T15:18:51;1.00;;;1.00;;
19575;SDS011;41589;51.196;7.074;2023-03-11T15:24:00;1.00;;;1.00;;
19575;SDS011;41589;51.196;7.074;2023-03-11T15:29:13;0.97;;;0.97;;
19575;SDS011;41589;51.196;7.074;2023-03-11T15:44:21;1.00;;;1.00;;
19575;SDS011;41589;51.196;7.074;2023-03-11T15:49:29;1.10;;;1.10;;
19575;SDS011;41589;51.196;7.074;2023-03-11T15:54:29;0.90;;;0.90;;
19575;SDS011;41589;51.196;7.074;2023-03-11T15:59:30;2.00;;;1.03;;
19575;SDS011;41589;51.196;7.074;2023-03-11T16:04:30;0.90;;;0.90;;
19575;SDS011;41589;51.196;7.074;2023-03-11T16:09:31;1.00;;;1.00;;
19575;SDS011;41589;51.196;7.074;2023-03-11T16:14:33;0.80;;;0.80;;
19575;SDS011;41589;51.196;7.074;2023-03-11T16:19:33;0.80;;;0.80;;
19575;SDS011;41589;51.196;7.074;2023-03-11T16:24:33;0.90;;;0.90;;
19575;SDS011;41589;51.196;7.074;2023-03-11T16:29:34;1.00;;;1.00;;
19575;SDS011;41589;51.196;7.074;2023-03-11T16:34:34;0.90;;;0.90;;
19575;SDS011;41589;51.196;7.074;2023-03-11T16:39:35;0.93;;;0.93;;
19575;SDS011;41589;51.196;7.074;2023-03-11T16:44:37;1.00;;;1.00;;
19575;SDS011;41589;51.196;7.074;2023-03-11T16:49:38;0.90;;;0.90;;
19575;SDS011;41589;51.196;7.074;2023-03-11T16:54:38;1.10;;;1.00;;
19575;SDS011;41589;51.196;7.074;2023-03-11T16:59:38;0.87;;;0.87;;
19575;SDS011;41589;51.196;7.074;2023-03-11T17:04:39;0.90;;;0.90;;
19575;SDS011;41589;51.196;7.074;2023-03-11T17:09:39;1.00;;;1.00;;
19575;SDS011;41589;51.196;7.074;2023-03-11T17:14:39;0.90;;;0.90;;
19575;SDS011;41589;51.196;7.074;2023-03-11T17:19:40;0.90;;;0.90;;
19575;SDS011;41589;51.196;7.074;2023-03-11T17:24:40;0.90;;;0.90;;
19575;SDS011;41589;51.196;7.074;2023-03-11T17:29:40;1.20;;;1.20;;
19575;SDS011;41589;51.196;7.074;2023-03-11T17:34:41;1.10;;;1.10;;
19575;SDS011;41589;51.196;7.074;2023-03-11T17:39:41;1.40;;;1.30;;
19575;SDS011;41589;51.196;7.074;2023-03-11T17:44:42;1.00;;;1.00;;
19575;SDS011;41589;51.196;7.074;2023-03-11T17:49:42;1.30;;;1.20;;
19575;SDS011;41589;51.196;7.074;2023-03-11T17:54:43;1.00;;;1.00;;
19575;SDS011;41589;51.196;7.074;2023-03-11T17:59:44;1.20;;;1.10;;
19575;SDS011;41589;51.196;7.074;2023-03-11T18:04:48;1.43;;;1.30;;
19575;SDS011;41589;51.196;7.074;2023-03-11T18:09:51;1.50;;;1.40;;
19575;SDS011;41589;51.196;7.074;2023-03-11T18:14:52;1.10;;;1.10;;
19575;SDS011;41589;51.196;7.074;2023-03-11T18:19:52;1.00;;;1.00;;
19575;SDS011;41589;51.196;7.074;2023-03-11T18:24:53;1.13;;;1.07;;
19575;SDS011;41589;51.196;7.074;2023-03-11T18:29:53;2.43;;;2.27;;
19575;SDS011;41589;51.196;7.074;2023-03-11T18:34:53;2.10;;;2.00;;
19575;SDS011;41589;51.196;7.074;2023-03-11T18:39:54;1.87;;;1.77;;
19575;SDS011;41589;51.196;7.074;2023-03-11T18:44:54;1.63;;;1.53;;
19575;SDS011;41589;51.196;7.074;2023-03-11T18:49:55;1.60;;;1.50;;
19575;SDS011;41589;51.196;7.074;2023-03-11T18:54:55;1.17;;;1.17;;
19575;SDS011;41589;51.196;7.074;2023-03-11T18:59:55;1.40;;;1.33;;
19575;SDS011;41589;51.196;7.074;2023-03-11T19:04:56;1.30;;;1.30;;
19575;SDS011;41589;51.196;7.074;2023-03-11T19:09:56;1.60;;;1.50;;
19575;SDS011;41589;51.196;7.074;2023-03-11T19:14:56;1.80;;;1.70;;
19575;SDS011;41589;51.196;7.074;2023-03-11T19:19:57;2.27;;;1.90;;
19575;SDS011;41589;51.196;7.074;2023-03-11T19:24:57;2.30;;;2.10;;
19575;SDS011;41589;51.196;7.074;2023-03-11T19:29:58;2.30;;;2.17;;
19575;SDS011;41589;51.196;7.074;2023-03-11T19:34:58;1.90;;;1.80;;
19575;SDS011;41589;51.196;7.074;2023-03-11T19:39:58;2.30;;;2.20;;
19575;SDS011;41589;51.196;7.074;2023-03-11T19:44:59;1.50;;;1.50;;
19575;SDS011;41589;51.196;7.074;2023-03-11T19:49:59;1.77;;;1.67;;
19575;SDS011;41589;51.196;7.074;2023-03-11T19:54:59;1.60;;;1.50;;
19575;SDS011;41589;51.196;7.074;2023-03-11T20:00:00;1.53;;;1.50;;
19575;SDS011;41589;51.196;7.074;2023-03-11T20:05:00;1.57;;;1.47;;
19575;SDS011;41589;51.196;7.074;2023-03-11T20:10:01;2.27;;;2.17;;
19575;SDS011;41589;51.196;7.074;2023-03-11T20:15:03;3.93;;;3.73;;
19575;SDS011;41589;51.196;7.074;2023-03-11T20:20:03;4.50;;;4.20;;
19575;SDS011;41589;51.196;7.074;2023-03-11T20:25:04;4.00;;;3.70;;
19575;SDS011;41589;51.196;7.074;2023-03-11T20:30:05;2.60;;;2.50;;
19575;SDS011;41589;51.196;7.074;2023-03-11T20:35:06;2.27;;;2.17;;
19575;SDS011;41589;51.196;7.074;2023-03-11T20:40:07;2.00;;;1.90;;
19575;SDS011;41589;51.196;7.074;2023-03-11T20:45:09;1.60;;;1.60;;
19575;SDS011;41589;51.196;7.074;2023-03-11T20:50:11;1.90;;;1.80;;
19575;SDS011;41589;51.196;7.074;2023-03-11T20:55:11;2.13;;;2.03;;
19575;SDS011;41589;51.196;7.074;2023-03-11T21:00:12;1.73;;;1.63;;
19575;SDS011;41589;51.196;7.074;2023-03-11T21:05:13;1.53;;;1.43;;
19575;SDS011;41589;51.196;7.074;2023-03-11T21:10:13;1.70;;;1.60;;
19575;SDS011;41589;51.196;7.074;2023-03-11T21:15:14;2.20;;;2.10;;
19575;SDS011;41589;51.196;7.074;2023-03-11T21:20:14;1.63;;;1.60;;
19575;SDS011;41589;51.196;7.074;2023-03-11T21:25:15;2.23;;;2.10;;
19575;SDS011;41589;51.196;7.074;2023-03-11T21:30:16;1.40;;;1.40;;
19575;SDS011;41589;51.196;7.074;2023-03-11T21:35:16;1.60;;;1.50;;
19575;SDS011;41589;51.196;7.074;2023-03-11T21:40:17;1.57;;;1.47;;
19575;SDS011;41589;51.196;7.074;2023-03-11T21:45:17;1.77;;;1.67;;
19575;SDS011;41589;51.196;7.074;2023-03-11T21:50:17;1.40;;;1.40;;
19575;SDS011;41589;51.196;7.074;2023-03-11T21:55:18;1.97;;;1.87;;
19575;SDS011;41589;51.196;7.074;2023-03-11T22:00:18;1.60;;;1.50;;
19575;SDS011;41589;51.196;7.074;2023-03-11T22:05:19;1.50;;;1.50;;
19575;SDS011;41589;51.196;7.074;2023-03-11T22:10:19;1.50;;;1.40;;
19575;SDS011;41589;51.196;7.074;2023-03-11T22:15:20;1.40;;;1.30;;
19575;SDS011;41589;51.196;7.074;2023-03-11T22:20:20;1.40;;;1.40;;
19575;SDS011;41589;51.196;7.074;2023-03-11T22:25:20;1.60;;;1.50;;
19575;SDS011;41589;51.196;7.074;2023-03-11T22:30:21;1.37;;;1.37;;
19575;SDS011;41589;51.196;7.074;2023-03-11T22:35:22;1.60;;;1.50;;
19575;SDS011;41589;51.196;7.074;2023-03-11T22:40:22;1.20;;;1.20;;
19575;SDS011;41589;51.196;7.074;2023-03-11T22:45:23;1.50;;;1.50;;
19575;SDS011;41589;51.196;7.074;2023-03-11T22:50:23;1.40;;;1.40;;
19575;SDS011;41589;51.196;7.074;2023-03-11T22:55:23;1.30;;;1.30;;
19575;SDS011;41589;51.196;7.074;2023-03-11T23:00:24;1.63;;;1.53;;
19575;SDS011;41589;51.196;7.074;2023-03-11T23:05:24;1.30;;;1.30;;
19575;SDS011;41589;51.196;7.074;2023-03-11T23:10:24;1.30;;;1.30;;
19575;SDS011;41589;51.196;7.074;2023-03-11T23:15:25;1.60;;;1.50;;
19575;SDS011;41589;51.196;7.074;2023-03-11T23:20:25;1.30;;;1.30;;
19575;SDS011;41589;51.196;7.074;2023-03-11T23:25:26;1.30;;;1.30;;
19575;SDS011;41589;51.196;7.074;2023-03-11T23:30:26;1.50;;;1.40;;
19575;SDS011;41589;51.196;7.074;2023-03-11T23:35:27;1.23;;;1.23;;
19575;SDS011;41589;51.196;7.074;2023-03-11T23:40:27;1.40;;;1.40;;
19575;SDS011;41589;51.196;7.074;2023-03-11T23:45:28;1.20;;;1.20;;
19575;SDS011;41589;51.196;7.074;2023-03-11T23:50:28;1.63;;;1.50;;
19575;SDS011;41589;51.196;7.074;2023-03-11T23:55:28;1.10;;;1.10;;
